createdAt,value
2023-04-08T00:02:23.653Z,20.93
2023-04-08T00:04:52.346Z,21.20
2023-04-08T00:07:21.011Z,21.33
2023-04-08T00:09:50.492Z,20.90
2023-04-08T00:12:19.566Z,20.93
2023-04-08T00:14:48.277Z,20.70
2023-04-08T00:17:17.002Z,19.07
2023-04-08T00:19:45.947Z,18.77
2023-04-08T00:22:14.551Z,18.50
2023-04-08T00:24:43.293Z,18.33
2023-04-08T00:27:11.988Z,17.73
2023-04-08T00:29:43.212Z,18.83
2023-04-08T00:32:11.973Z,18.73
2023-04-08T00:34:40.611Z,17.77
2023-04-08T00:37:09.983Z,18.87
2023-04-08T00:39:39.007Z,18.23
2023-04-08T00:42:07.676Z,19.50
2023-04-08T00:44:36.559Z,21.43
2023-04-08T00:47:06.241Z,23.00
2023-04-08T00:49:35.012Z,24.13
2023-04-08T00:52:03.669Z,22.63
2023-04-08T00:54:36.288Z,22.57
2023-04-08T00:57:06.461Z,23.63
2023-04-08T00:59:37.357Z,22.47
2023-04-08T01:02:20.814Z,23.60
2023-04-08T01:05:11.011Z,23.10
2023-04-08T01:07:48.381Z,21.30
2023-04-08T01:10:20.019Z,22.13
2023-04-08T01:12:51.630Z,22.27
2023-04-08T01:15:21.414Z,21.77
2023-04-08T01:17:53.038Z,21.67
2023-04-08T01:20:22.885Z,21.20
2023-04-08T01:22:54.964Z,20.50
2023-04-08T01:25:32.625Z,20.00
2023-04-08T01:28:07.063Z,18.47
2023-04-08T01:30:38.113Z,20.23
2023-04-08T01:33:08.483Z,20.13
2023-04-08T01:35:37.765Z,18.77
2023-04-08T01:38:09.519Z,18.10
2023-04-08T01:40:40.438Z,18.23
2023-04-08T01:43:11.413Z,16.87
2023-04-08T01:45:40.498Z,16.63
2023-04-08T01:48:10.337Z,15.97
2023-04-08T01:50:39.665Z,17.40
2023-04-08T01:53:10.912Z,17.03
2023-04-08T01:55:41.671Z,17.30
2023-04-08T01:58:13.126Z,18.20
2023-04-08T02:00:43.564Z,16.93
2023-04-08T02:03:14.553Z,18.23
2023-04-08T02:05:43.424Z,17.80
2023-04-08T02:08:13.207Z,21.43
2023-04-08T02:10:41.918Z,22.07
2023-04-08T02:13:10.638Z,23.03
2023-04-08T02:15:41.983Z,22.50
2023-04-08T02:18:16.744Z,22.77
2023-04-08T02:20:51.486Z,24.30
2023-04-08T02:23:23.493Z,24.40
2023-04-08T02:25:54.219Z,23.60
2023-04-08T02:28:24.496Z,21.70
2023-04-08T02:30:54.404Z,22.83
2023-04-08T02:33:24.263Z,22.83
2023-04-08T02:35:55.803Z,22.37
2023-04-08T02:38:24.591Z,21.63
2023-04-08T02:40:53.332Z,22.03
2023-04-08T02:43:22.376Z,21.90
2023-04-08T02:45:51.091Z,20.97
2023-04-08T02:48:19.841Z,22.80
2023-04-08T02:50:48.391Z,21.03
2023-04-08T02:53:17.060Z,22.43
2023-04-08T02:55:45.640Z,23.33
2023-04-08T02:58:14.311Z,22.77
2023-04-08T03:00:43.086Z,21.90
2023-04-08T03:03:11.951Z,23.20
2023-04-08T03:05:40.821Z,22.90
2023-04-08T03:08:09.546Z,21.93
2023-04-08T03:10:38.265Z,21.90
2023-04-08T03:13:06.875Z,22.73
2023-04-08T03:15:35.659Z,22.80
2023-04-08T03:18:04.729Z,23.03
2023-04-08T03:20:33.522Z,22.60
2023-04-08T03:23:02.240Z,23.07
2023-04-08T03:25:31.649Z,21.80
2023-04-08T03:28:02.957Z,21.63
2023-04-08T03:30:32.794Z,22.10
2023-04-08T03:33:03.372Z,22.23
2023-04-08T03:35:33.435Z,22.93
2023-04-08T03:38:02.329Z,21.23
2023-04-08T03:40:32.492Z,20.90
2023-04-08T03:43:01.260Z,22.60
2023-04-08T03:45:29.956Z,22.30
2023-04-08T03:47:58.598Z,22.17
2023-04-08T03:50:27.395Z,21.60
2023-04-08T03:52:56.067Z,21.37
2023-04-08T03:55:24.865Z,20.63
2023-04-08T03:57:53.552Z,21.53
2023-04-08T04:00:22.260Z,21.77
2023-04-08T04:02:51.037Z,21.67
2023-04-08T04:05:19.789Z,22.10
2023-04-08T04:07:48.399Z,21.40
2023-04-08T04:10:17.301Z,21.77
2023-04-08T04:12:47.399Z,19.90
2023-04-08T04:15:16.243Z,20.40
2023-04-08T04:17:45.021Z,21.13
2023-04-08T04:20:14.054Z,18.97
2023-04-08T04:22:45.076Z,19.90
2023-04-08T04:25:18.717Z,19.70
2023-04-08T04:27:47.841Z,20.50
2023-04-08T04:30:19.746Z,19.93
2023-04-08T04:32:50.968Z,19.90
2023-04-08T04:35:19.937Z,19.80
2023-04-08T04:37:50.387Z,19.10
2023-04-08T04:40:21.501Z,19.17
2023-04-08T04:42:50.100Z,19.43
2023-04-08T04:45:20.419Z,19.83
2023-04-08T04:47:49.151Z,18.70
2023-04-08T04:50:17.937Z,17.90
2023-04-08T04:52:46.613Z,18.67
2023-04-08T04:55:16.187Z,18.43
2023-04-08T04:57:45.066Z,18.07
2023-04-08T05:00:13.968Z,16.30
2023-04-08T05:02:42.764Z,16.70
2023-04-08T05:05:11.818Z,15.83
2023-04-08T05:07:40.750Z,15.13
2023-04-08T05:10:11.196Z,14.67
2023-04-08T05:12:40.207Z,15.50
2023-04-08T05:15:09.776Z,15.00
2023-04-08T05:17:38.783Z,13.80
2023-04-08T05:20:08.607Z,13.80
2023-04-08T05:22:37.401Z,13.17
2023-04-08T05:25:07.180Z,13.83
2023-04-08T05:27:35.886Z,14.50
2023-04-08T05:30:04.971Z,12.90
2023-04-08T05:32:33.832Z,13.03
2023-04-08T05:35:04.768Z,13.33
2023-04-08T05:37:33.414Z,13.13
2023-04-08T05:40:02.184Z,12.73
2023-04-08T05:42:32.195Z,13.23
2023-04-08T05:45:02.573Z,12.47
2023-04-08T05:47:31.625Z,13.27
2023-04-08T05:50:00.335Z,13.23
2023-04-08T05:52:29.329Z,13.47
2023-04-08T05:54:57.993Z,13.50
2023-04-08T06:00:55.689Z,12.40
2023-04-08T06:03:24.553Z,13.30
2023-04-08T06:05:54.942Z,14.13
2023-04-08T06:08:27.011Z,13.40
2023-04-08T06:10:55.694Z,13.47
2023-04-08T06:13:26.059Z,14.77
2023-04-08T06:16:03.433Z,14.20
2023-04-08T06:18:32.471Z,19.37
2023-04-08T06:24:29.906Z,14.50
2023-04-08T06:26:58.925Z,14.47
2023-04-08T06:29:29.530Z,14.93
2023-04-08T06:32:01.841Z,16.13
2023-04-08T06:34:30.781Z,15.33
2023-04-08T06:36:59.695Z,15.50
2023-04-08T06:39:28.635Z,14.90
2023-04-08T06:41:58.188Z,14.90
2023-04-08T06:44:29.017Z,15.30
2023-04-08T06:46:59.141Z,14.73
2023-04-08T06:49:31.294Z,15.10
2023-04-08T06:52:02.027Z,15.20
2023-04-08T06:54:34.111Z,14.87
2023-04-08T06:57:04.311Z,15.17
2023-04-08T06:59:33.064Z,16.07
2023-04-08T07:02:03.553Z,15.20
2023-04-08T07:04:36.082Z,16.10
2023-04-08T07:07:06.010Z,16.33
2023-04-08T07:09:42.274Z,16.20
2023-04-08T07:12:10.943Z,15.23
2023-04-08T07:14:39.567Z,15.17
2023-04-08T07:17:08.453Z,15.10
2023-04-08T07:19:37.741Z,15.03
2023-04-08T07:22:16.382Z,14.33
2023-04-08T07:28:14.241Z,14.45
2023-04-08T07:30:43.117Z,14.37
2023-04-08T07:33:12.012Z,14.30
2023-04-08T07:35:42.174Z,14.50
2023-04-08T07:38:12.166Z,14.30
2023-04-08T07:40:41.441Z,13.67
2023-04-08T07:43:10.190Z,15.15
2023-04-08T07:45:38.907Z,14.20
2023-04-08T07:48:07.962Z,13.60
2023-04-08T07:51:08.960Z,13.13
2023-04-08T07:53:10.081Z,14.97
2023-04-08T07:55:43.280Z,14.27
2023-04-08T07:58:12.404Z,14.27
2023-04-08T08:00:41.495Z,14.20
2023-04-08T08:03:10.501Z,14.35
2023-04-08T08:05:39.345Z,14.50
2023-04-08T08:08:08.132Z,15.75
2023-04-08T08:10:36.817Z,14.63
2023-04-08T08:13:06.369Z,15.68
2023-04-08T08:15:35.411Z,15.23
2023-04-08T08:18:04.120Z,14.53
2023-04-08T08:20:32.773Z,13.88
2023-04-08T08:23:01.388Z,15.45
2023-04-08T08:25:30.228Z,14.58
2023-04-08T08:27:58.824Z,14.95
2023-04-08T08:30:27.749Z,15.55
2023-04-08T08:32:58.002Z,15.13
2023-04-08T08:35:27.266Z,14.95
2023-04-08T08:37:57.314Z,15.48
2023-04-08T08:40:26.102Z,15.48
2023-04-08T08:42:55.054Z,16.65
2023-04-08T08:45:25.359Z,16.05
2023-04-08T08:47:54.339Z,16.52
2023-04-08T08:50:23.303Z,15.75
2023-04-08T08:52:56.286Z,15.38
2023-04-08T08:55:50.354Z,16.23
2023-04-08T08:57:59.221Z,16.00
2023-04-08T09:00:34.683Z,16.73
2023-04-08T09:03:21.342Z,18.70
2023-04-08T09:05:52.207Z,16.70
2023-04-08T09:08:37.554Z,16.87
2023-04-08T09:11:21.897Z,18.25
2023-04-08T09:13:51.176Z,20.20
2023-04-08T09:16:22.908Z,18.73
2023-04-08T09:18:52.550Z,18.82
2023-04-08T09:21:25.539Z,21.73
2023-04-08T09:23:54.923Z,16.77
2023-04-08T09:26:25.417Z,18.05
2023-04-08T09:29:25.061Z,18.90
2023-04-08T09:31:44.618Z,20.25
2023-04-08T09:34:19.881Z,17.45
2023-04-08T09:36:51.361Z,16.35
2023-04-08T09:39:41.793Z,17.00
2023-04-08T09:42:12.756Z,16.85
2023-04-08T09:44:43.123Z,17.52
2023-04-08T09:47:23.832Z,16.12
2023-04-08T09:53:19.378Z,17.73
2023-04-08T09:55:52.166Z,16.00
2023-04-08T09:58:32.851Z,14.75
2023-04-08T10:01:02.546Z,15.23
2023-04-08T10:03:38.557Z,14.60
2023-04-08T10:09:38.130Z,14.55
2023-04-08T10:12:06.988Z,15.65
2023-04-08T10:14:35.863Z,14.30
2023-04-08T10:17:30.468Z,15.63
2023-04-08T10:20:03.392Z,18.37
2023-04-08T10:22:38.048Z,16.10
2023-04-08T10:25:48.266Z,15.18
2023-04-08T10:34:48.758Z,13.70
2023-04-08T10:37:17.628Z,13.70
2023-04-08T10:39:55.662Z,13.43
2023-04-08T10:42:26.220Z,13.62
2023-04-08T10:45:19.718Z,14.40
2023-04-08T10:47:58.003Z,15.40
2023-04-08T10:50:25.846Z,15.03
2023-04-08T10:57:15.232Z,14.80
2023-04-08T11:10:21.859Z,14.47
2023-04-08T11:12:51.354Z,14.65
2023-04-08T11:15:31.228Z,13.53
2023-04-08T11:17:57.266Z,13.83
2023-04-08T11:20:30.118Z,13.28
2023-04-08T11:23:02.159Z,11.95
2023-04-08T11:25:43.766Z,13.58
2023-04-08T11:28:20.877Z,14.53
2023-04-08T11:30:51.142Z,15.60
2023-04-08T11:33:19.946Z,15.13
2023-04-08T11:35:53.260Z,12.43
2023-04-08T11:38:30.809Z,11.60
2023-04-08T11:41:01.765Z,11.57
2023-04-08T11:43:30.870Z,10.72
2023-04-08T11:46:01.540Z,11.18
2023-04-08T12:25:03.986Z,9.45
2023-04-08T12:33:56.233Z,9.65
2023-04-08T12:36:27.454Z,9.23
2023-04-08T12:38:56.642Z,8.53
2023-04-08T12:41:25.276Z,8.73
2023-04-08T12:43:53.954Z,8.08
2023-04-08T12:46:24.460Z,8.83
2023-04-08T12:49:03.192Z,9.85
2023-04-08T12:54:33.515Z,8.75
2023-04-08T12:57:06.080Z,8.63
2023-04-08T12:59:34.847Z,9.00
2023-04-08T13:02:05.212Z,8.08
2023-04-08T13:04:34.107Z,8.70
2023-04-08T13:07:04.562Z,8.45
2023-04-08T13:09:33.368Z,8.10
2023-04-08T13:12:02.363Z,8.33
2023-04-08T13:14:31.543Z,8.08
2023-04-08T13:17:03.125Z,8.95
2023-04-08T13:19:31.921Z,8.30
2023-04-08T13:22:00.718Z,7.87
2023-04-08T13:24:29.357Z,8.53
2023-04-08T13:26:58.527Z,9.08
2023-04-08T13:29:27.212Z,7.95
2023-04-08T13:35:24.073Z,9.70
2023-04-08T13:37:52.780Z,7.67
2023-04-08T13:40:21.966Z,8.90
2023-04-08T13:42:52.299Z,9.33
2023-04-08T13:45:21.100Z,7.90
2023-04-08T13:47:49.784Z,10.80
2023-04-08T13:50:18.660Z,7.80
2023-04-08T13:52:47.480Z,8.73
2023-04-08T13:55:16.870Z,7.33
2023-04-08T13:57:45.898Z,8.20
2023-04-08T14:00:15.459Z,15.80
2023-04-08T14:02:44.369Z,13.05
2023-04-08T14:05:13.302Z,11.60
2023-04-08T14:07:44.338Z,10.05
2023-04-08T14:10:16.276Z,8.60
2023-04-08T14:12:46.935Z,9.60
2023-04-08T14:15:28.417Z,8.60
2023-04-08T14:17:57.589Z,9.00
2023-04-08T14:20:33.922Z,10.00
2023-04-08T14:23:08.616Z,9.78
2023-04-08T14:25:49.556Z,9.70
2023-04-08T14:28:10.196Z,10.05
2023-04-08T14:34:19.554Z,10.35
2023-04-08T14:36:50.510Z,10.63
2023-04-08T14:39:20.977Z,10.50
2023-04-08T14:41:49.743Z,11.28
2023-04-08T14:44:18.447Z,10.60
2023-04-08T14:46:47.449Z,11.95
2023-04-08T14:49:16.642Z,11.75
2023-04-08T14:51:46.899Z,9.35
2023-04-08T14:54:16.865Z,9.53
2023-04-08T14:56:46.220Z,9.20
2023-04-08T14:59:17.101Z,9.70
2023-04-08T15:01:46.106Z,10.35
2023-04-08T15:04:14.943Z,8.25
2023-04-08T15:06:44.671Z,9.00
2023-04-08T15:09:13.654Z,8.80
2023-04-08T15:11:42.413Z,9.10
2023-04-08T15:14:11.680Z,9.73
2023-04-08T15:16:40.461Z,8.83
2023-04-08T15:19:09.191Z,8.63
2023-04-08T15:21:37.900Z,8.98
2023-04-08T15:24:06.691Z,9.55
2023-04-08T15:26:35.433Z,9.90
2023-04-08T15:29:04.533Z,10.63
2023-04-08T15:31:35.220Z,10.10
2023-04-08T15:34:05.598Z,9.13
2023-04-08T15:36:36.220Z,9.65
2023-04-08T15:39:05.176Z,8.68
2023-04-08T15:41:34.003Z,11.17
2023-04-08T15:44:02.764Z,9.70
2023-04-08T15:46:31.587Z,12.18
2023-04-08T15:49:03.141Z,9.97
2023-04-08T15:51:53.714Z,58.58
2023-04-08T15:57:36.394Z,12.03
2023-04-08T16:00:18.228Z,13.65
2023-04-08T16:02:52.089Z,18.23
2023-04-08T16:05:18.025Z,14.20
2023-04-08T16:07:50.272Z,12.90
2023-04-08T16:10:20.553Z,13.88
2023-04-08T16:12:49.479Z,13.98
2023-04-08T16:15:18.679Z,13.70
2023-04-08T16:17:57.744Z,14.55
2023-04-08T16:24:09.726Z,11.77
2023-04-08T16:26:40.817Z,14.10
2023-04-08T16:29:09.553Z,11.77
2023-04-08T16:31:39.863Z,14.07
2023-04-08T16:34:10.220Z,10.87
2023-04-08T16:36:45.766Z,11.80
2023-04-08T16:39:09.590Z,12.10
2023-04-08T16:41:39.930Z,15.38
2023-04-08T16:44:32.035Z,14.13
2023-04-08T16:47:02.690Z,14.27
2023-04-08T16:49:38.753Z,14.63
2023-04-08T16:52:10.587Z,14.87
2023-04-08T16:54:42.608Z,14.03
2023-04-08T16:57:11.744Z,15.18
2023-04-08T16:59:40.447Z,15.00
2023-04-08T17:02:09.483Z,15.73
2023-04-08T17:04:38.572Z,18.77
2023-04-08T17:07:08.372Z,17.87
2023-04-08T17:09:37.493Z,15.15
2023-04-08T17:12:08.200Z,15.45
2023-04-08T17:14:42.356Z,15.25
2023-04-08T17:17:20.177Z,15.53
2023-04-08T17:20:06.373Z,16.95
2023-04-08T17:22:35.138Z,17.07
2023-04-08T17:25:03.982Z,17.23
2023-04-08T17:27:32.857Z,18.03
2023-04-08T17:30:01.583Z,17.10
2023-04-08T17:32:30.304Z,19.35
2023-04-08T17:34:59.035Z,19.23
2023-04-08T17:37:27.567Z,19.03
2023-04-08T17:39:56.248Z,19.60
2023-04-08T17:42:24.978Z,18.20
2023-04-08T17:44:58.197Z,17.37
2023-04-08T17:47:27.156Z,16.73
2023-04-08T17:49:58.720Z,17.97
2023-04-08T17:52:27.429Z,18.17
2023-04-08T17:54:56.158Z,19.03
2023-04-08T17:57:27.506Z,19.67
2023-04-08T17:59:56.216Z,20.17
2023-04-08T18:02:26.583Z,19.90
2023-04-08T18:04:56.967Z,20.70
2023-04-08T18:07:25.725Z,20.40
2023-04-08T18:09:54.684Z,17.67
2023-04-08T18:12:23.573Z,19.53
2023-04-08T18:14:52.352Z,18.77
2023-04-08T18:17:21.108Z,19.73
2023-04-08T18:19:50.086Z,25.80
2023-04-08T18:22:22.929Z,21.73
2023-04-08T18:24:53.258Z,21.07
2023-04-08T18:27:32.357Z,20.37
2023-04-08T18:30:08.020Z,24.67
2023-04-08T18:32:36.909Z,18.93
2023-04-08T18:35:11.032Z,18.70
2023-04-08T18:37:38.613Z,18.33
2023-04-08T18:40:37.333Z,19.57
2023-04-08T18:43:08.642Z,19.13
2023-04-08T18:45:45.935Z,20.33
2023-04-08T18:48:17.883Z,21.40
2023-04-08T18:50:48.872Z,21.80
2023-04-08T18:53:42.269Z,23.30
2023-04-08T18:56:18.643Z,18.90
2023-04-08T19:01:25.238Z,20.03
2023-04-08T19:04:22.190Z,22.23
2023-04-08T19:06:53.945Z,21.93
2023-04-08T19:09:21.891Z,20.57
2023-04-08T19:11:51.158Z,19.87
2023-04-08T19:14:20.080Z,20.03
2023-04-08T19:16:54.848Z,26.80
2023-04-08T19:19:21.142Z,24.90
2023-04-08T19:21:52.522Z,22.37
2023-04-08T19:24:21.392Z,25.37
2023-04-08T19:26:54.738Z,25.40
2023-04-08T19:29:24.561Z,26.00
2023-04-08T19:31:53.627Z,26.63
2023-04-08T19:34:22.394Z,38.97
2023-04-08T19:36:51.050Z,32.07
2023-04-08T19:39:19.899Z,28.03
2023-04-08T19:41:48.995Z,24.50
2023-04-08T19:44:17.847Z,25.53
2023-04-08T19:46:46.602Z,23.93
2023-04-08T19:49:20.032Z,24.23
2023-04-08T19:51:49.421Z,25.63
2023-04-08T19:54:24.213Z,33.87
2023-04-08T19:56:53.593Z,25.43
2023-04-08T19:59:24.107Z,25.93
2023-04-08T20:01:55.354Z,23.67
2023-04-08T20:04:24.349Z,20.87
2023-04-08T20:06:55.953Z,20.53
2023-04-08T20:09:24.958Z,20.77
2023-04-08T20:11:53.551Z,21.70
2023-04-08T20:14:22.530Z,23.53
2023-04-08T20:16:51.182Z,25.30
2023-04-08T20:19:19.863Z,24.20
2023-04-08T20:21:48.817Z,23.30
2023-04-08T20:24:17.924Z,23.97
2023-04-08T20:26:46.528Z,24.10
2023-04-08T20:29:15.220Z,21.63
2023-04-08T20:31:44.911Z,23.23
2023-04-08T20:34:14.320Z,21.63
2023-04-08T20:36:44.086Z,22.80
2023-04-08T20:39:13.117Z,23.00
2023-04-08T20:41:44.222Z,23.07
2023-04-08T20:44:13.112Z,26.10
2023-04-08T20:46:42.732Z,25.80
2023-04-08T20:49:12.469Z,26.10
2023-04-08T20:51:42.911Z,23.07
2023-04-08T20:54:11.868Z,23.97
2023-04-08T20:56:40.672Z,26.50
2023-04-08T20:59:09.837Z,24.43
2023-04-08T21:01:38.450Z,20.97
2023-04-08T21:04:07.274Z,20.70
2023-04-08T21:06:37.757Z,21.33
2023-04-08T21:09:06.344Z,18.87
2023-04-08T21:11:35.438Z,19.40
2023-04-08T21:14:04.169Z,24.10
2023-04-08T21:16:32.818Z,18.07
2023-04-08T21:19:02.156Z,17.50
2023-04-08T21:21:31.646Z,17.33
2023-04-08T21:24:00.828Z,18.87
2023-04-08T21:26:29.510Z,19.97
2023-04-08T21:28:58.273Z,18.73
2023-04-08T21:31:27.417Z,19.80
2023-04-08T21:33:56.565Z,18.63
2023-04-08T21:36:27.338Z,19.23
2023-04-08T21:38:57.262Z,20.23
2023-04-08T21:41:26.452Z,18.47
2023-04-08T21:43:57.350Z,21.07
2023-04-08T21:46:26.127Z,18.03
2023-04-08T21:48:55.102Z,17.77
2023-04-08T21:51:23.943Z,19.43
2023-04-08T21:53:53.445Z,19.20
2023-04-08T21:56:22.459Z,17.27
2023-04-08T21:58:51.502Z,16.53
2023-04-08T22:01:20.689Z,17.83
2023-04-08T22:03:49.692Z,17.03
2023-04-08T22:06:29.093Z,17.60
2023-04-08T22:08:50.695Z,17.30
2023-04-08T22:11:19.699Z,16.53
2023-04-08T22:13:49.591Z,16.23
2023-04-08T22:16:18.272Z,16.30
2023-04-08T22:18:48.375Z,16.03
2023-04-08T22:21:17.068Z,15.53
2023-04-08T22:23:46.174Z,15.37
2023-04-08T22:26:15.748Z,16.07
2023-04-08T22:28:44.787Z,15.60
2023-04-08T22:31:15.026Z,14.93
2023-04-08T22:33:43.699Z,15.33
2023-04-08T22:36:12.435Z,15.60
2023-04-08T22:38:41.963Z,14.47
2023-04-08T22:41:24.685Z,16.10
2023-04-08T22:43:53.412Z,14.43
2023-04-08T22:46:22.087Z,15.50
2023-04-08T22:48:51.187Z,16.50
2023-04-08T22:51:20.913Z,16.07
2023-04-08T22:53:49.866Z,15.67
2023-04-08T22:56:18.907Z,16.10
2023-04-08T22:58:47.597Z,15.90
2023-04-08T23:01:20.102Z,16.33
2023-04-08T23:03:49.102Z,16.53
2023-04-08T23:06:18.003Z,16.93
2023-04-08T23:08:46.782Z,16.90
2023-04-08T23:11:15.572Z,17.10
2023-04-08T23:13:45.915Z,18.00
2023-04-08T23:16:14.798Z,18.13
2023-04-08T23:18:43.605Z,17.10
2023-04-08T23:21:12.374Z,16.60
2023-04-08T23:23:41.061Z,17.00
2023-04-08T23:26:11.231Z,15.03
2023-04-08T23:28:39.945Z,16.93
2023-04-08T23:31:08.654Z,15.97
2023-04-08T23:33:38.530Z,15.23
2023-04-08T23:36:16.318Z,16.13
2023-04-08T23:38:45.128Z,14.13
2023-04-08T23:41:13.764Z,14.80
2023-04-08T23:43:42.451Z,14.87
2023-04-08T23:46:11.163Z,14.27
2023-04-08T23:48:41.531Z,14.07
2023-04-08T23:51:11.869Z,14.47
2023-04-08T23:53:41.306Z,14.13
2023-04-08T23:56:11.068Z,18.10
2023-04-08T23:58:39.726Z,16.13
